createdAt,value
2019-05-09T19:58:40.249Z,6.53
2019-05-09T20:01:11.929Z,5.70
2019-05-09T20:03:43.555Z,5.80
2019-05-09T20:06:17.264Z,5.83
2019-05-09T20:08:49.423Z,5.53
2019-05-09T20:11:22.826Z,6.45
2019-05-09T20:13:59.208Z,6.60
2019-05-09T20:16:32.374Z,6.40
2019-05-09T20:19:04.241Z,6.97
2019-05-09T20:21:36.027Z,7.30
2019-05-09T20:24:09.393Z,7.20
2019-05-09T20:26:41.046Z,6.70
2019-05-09T20:29:12.696Z,6.85
2019-05-09T20:34:14.908Z,7.45
2019-05-09T20:36:46.434Z,6.72
2019-05-09T20:39:18.415Z,6.28
2019-05-09T20:41:50.467Z,6.65
2019-05-09T20:44:22.215Z,6.60
2019-05-09T20:46:54.083Z,7.00
2019-05-09T20:49:26.144Z,6.83
2019-05-09T20:51:58.453Z,6.35
2019-05-09T20:54:30.780Z,6.45
2019-05-09T20:57:02.646Z,6.87
2019-05-09T20:59:34.400Z,6.35
2019-05-09T21:02:06.581Z,7.30
2019-05-09T21:04:38.527Z,7.97
2019-05-09T21:07:10.391Z,10.10
2019-05-09T21:09:42.249Z,12.07
2019-05-09T21:12:14.427Z,16.02
2019-05-09T21:14:46.391Z,18.62
2019-05-09T21:17:18.452Z,19.23
2019-05-09T21:19:50.514Z,20.37
2019-05-09T21:22:22.677Z,20.35
2019-05-09T21:24:54.326Z,20.32
2019-05-09T21:27:26.090Z,21.40
2019-05-09T21:29:57.955Z,24.15
2019-05-09T21:32:29.912Z,27.87
2019-05-09T21:35:01.791Z,28.55
2019-05-09T21:37:36.299Z,27.35
2019-05-09T21:40:08.839Z,28.07
2019-05-09T21:42:40.426Z,27.75
2019-05-09T21:47:42.398Z,22.62
2019-05-09T21:50:14.539Z,22.35
2019-05-09T21:52:46.661Z,20.10
2019-05-09T21:55:18.289Z,19.67
2019-05-09T21:57:50.148Z,19.67
2019-05-09T22:00:29.413Z,18.90
2019-05-09T22:03:02.682Z,17.32
2019-05-09T22:05:36.121Z,17.17
2019-05-09T22:08:07.726Z,22.70
2019-05-09T22:10:39.168Z,23.57
2019-05-09T22:15:41.150Z,24.15
2019-05-09T22:18:13.015Z,25.10
2019-05-09T22:20:44.563Z,24.32
2019-05-09T22:25:46.541Z,21.85
2019-05-09T22:28:18.300Z,22.52
2019-05-09T22:30:49.954Z,22.82
2019-05-09T22:33:21.606Z,23.20
2019-05-09T22:35:53.259Z,24.15
2019-05-09T22:38:24.917Z,20.02
2019-05-09T22:40:56.789Z,22.00
2019-05-09T22:43:28.945Z,27.50
2019-05-09T22:46:00.808Z,27.45
2019-05-09T22:48:32.355Z,25.97
2019-05-09T22:51:04.219Z,25.55
2019-05-09T22:53:36.294Z,24.55
2019-05-09T22:56:08.041Z,23.67
2019-05-09T23:01:10.560Z,15.15
2019-05-09T23:03:42.290Z,11.50
2019-05-09T23:08:44.159Z,8.40
2019-05-09T23:11:15.915Z,9.60
2019-05-09T23:13:53.821Z,9.65
2019-05-09T23:16:27.316Z,9.40
2019-05-09T23:18:58.975Z,8.63
2019-05-09T23:21:30.626Z,9.63
2019-05-09T23:24:04.136Z,10.90
2019-05-09T23:26:36.091Z,10.88
2019-05-09T23:29:07.946Z,10.53
2019-05-09T23:31:44.516Z,10.32
2019-05-09T23:34:16.273Z,10.72
2019-05-09T23:36:47.934Z,8.73
2019-05-09T23:39:21.428Z,8.45
2019-05-09T23:41:53.082Z,9.05
2019-05-09T23:44:24.845Z,9.10
2019-05-09T23:46:56.899Z,9.30
2019-05-09T23:49:28.556Z,8.45
2019-05-09T23:52:00.331Z,7.85
2019-05-09T23:54:49.990Z,7.92
2019-05-09T23:57:41.819Z,8.90
